»·PEaware :: WAT169 KLAS-KSNA

WAT169 :: KLAS-KSNA

FLIGHT INFORMATION

Flight Status: Arrived
Operator: Unknown
More flights by this operator :: More flights under this callsign
Pilot: Marty P. (27464)
Aircraft: BOMBARDIER BD-100 CHALLENGER 300
(CL30)
More flights by this aircraft type
Origin: KLAS McCarran Intl
United States
Destination: KSNA John Wayne-Orange Co
United States
More flights between these airports :: More routes between these airports
Route: +BOACH8 WHIGG FEYLA DSNEE4
File this flight plan on PilotEdge
Remarks:
Altitude:
(Current/Filed)
26,000ft
Speed:
(Current/Filed)
470kts
Departed: 18-Mar-20 03:31 PM
Arrived: 18-Mar-20 04:24 PM
Distance/Time
Traveled:
197nm/0:53
Distance/Time
To Go:
Arrived

Flight Plot

Page will automatically refresh every two minutes.

Flight plan parsing failed; only flown route is shown


Map Options




Map Legend


Flown Route
Filed Route
Departure Airport
Arrival Airport
Navaid (VOR, NDB)
Fix

Horizontal Profiles

Position Reports

Time Latitude Longitude Heading Altitude Ground
Speed
18-Mar-20 15:16 36.080910 -115.170596 89 2187ft 0kts
18-Mar-20 15:17 36.080910 -115.170596 89 2187ft 0kts
18-Mar-20 15:18 36.080910 -115.170596 89 2187ft 0kts
18-Mar-20 15:19 36.080910 -115.170596 89 2187ft 0kts
18-Mar-20 15:20 36.080910 -115.170596 89 2187ft 0kts
18-Mar-20 15:21 36.080910 -115.170596 89 2187ft 0kts
18-Mar-20 15:22 36.080910 -115.170596 89 2187ft 0kts
18-Mar-20 15:23 36.080910 -115.170596 89 2187ft 0kts
18-Mar-20 15:24 36.080912 -115.170325 89 2187ft 0kts
18-Mar-20 15:25 36.080923 -115.169902 87 2187ft 3kts
18-Mar-20 15:26 36.083626 -115.168021 25 2187ft 22kts
18-Mar-20 15:27 36.090244 -115.164229 24 2187ft 25kts
18-Mar-20 15:28 36.095354 -115.161311 24 2188ft 16kts
18-Mar-20 15:29 36.098540 -115.159488 24 2188ft 4kts
18-Mar-20 15:30 36.099794 -115.157829 71 2188ft 0kts
18-Mar-20 15:30 36.095796 -115.158644 204 2188ft 90kts
18-Mar-20 15:32 36.038493 -115.191979 202 4328ft 208kts
18-Mar-20 15:33 35.999194 -115.240847 239 5642ft 212kts
18-Mar-20 15:33 35.970002 -115.295806 210 5966ft 259kts
18-Mar-20 15:35 35.885656 -115.311545 186 11270ft 269kts
18-Mar-20 15:35 35.823296 -115.310887 178 14759ft 278kts
18-Mar-20 15:37 35.723309 -115.299819 177 15029ft 334kts
18-Mar-20 15:37 35.654780 -115.329612 222 18152ft 336kts
18-Mar-20 15:38 35.586214 -115.418874 226 20658ft 365kts
18-Mar-20 15:39 35.516395 -115.512344 226 23253ft 376kts
18-Mar-20 15:40 35.444836 -115.608799 226 25421ft 386kts
18-Mar-20 15:41 35.369961 -115.709513 225 25825ft 416kts
18-Mar-20 15:42 35.292633 -115.813278 225 25822ft 406kts
18-Mar-20 15:43 35.216538 -115.914158 224 25854ft 408kts
18-Mar-20 15:44 35.136193 -116.015669 224 25849ft 414kts
18-Mar-20 15:45 35.054793 -116.118162 224 25849ft 423kts
18-Mar-20 15:46 34.972467 -116.221452 224 25861ft 424kts
18-Mar-20 15:47 34.891048 -116.323245 224 25870ft 424kts
18-Mar-20 15:48 34.809278 -116.427345 225 25856ft 424kts
18-Mar-20 15:49 34.729280 -116.529046 225 25848ft 405kts
18-Mar-20 15:50 34.647657 -116.619120 218 25878ft 387kts
18-Mar-20 15:51 34.564515 -116.700691 217 24747ft 391kts
18-Mar-20 15:52 34.482859 -116.784656 222 22442ft 373kts
18-Mar-20 15:53 34.410097 -116.868904 222 18700ft 361kts
18-Mar-20 15:54 34.339131 -116.951075 222 15311ft 346kts
18-Mar-20 15:55 34.273528 -117.026488 221 14006ft 298kts
18-Mar-20 15:56 34.202769 -117.079670 210 12524ft 295kts
18-Mar-20 15:57 34.134242 -117.122109 203 12518ft 272kts
18-Mar-20 15:58 34.061299 -117.161420 203 12515ft 307kts
18-Mar-20 15:59 33.986479 -117.212629 226 11935ft 309kts
18-Mar-20 16:00 33.933490 -117.284974 228 9878ft 279kts
18-Mar-20 16:01 33.884759 -117.353424 229 7990ft 239kts
18-Mar-20 16:02 33.842777 -117.412443 229 8013ft 239kts
18-Mar-20 16:03 33.807453 -117.482267 249 7610ft 240kts
18-Mar-20 16:04 33.799956 -117.553619 272 7600ft 212kts
18-Mar-20 16:05 33.800985 -117.626203 272 7028ft 227kts
18-Mar-20 16:06 33.801877 -117.698915 271 5983ft 221kts
18-Mar-20 16:07 33.802732 -117.771672 271 5536ft 221kts
18-Mar-20 16:08 33.804086 -117.841487 272 3118ft 220kts
18-Mar-20 16:09 33.832989 -117.870146 21 3015ft 208kts
18-Mar-20 16:10 33.881601 -117.845500 21 2977ft 208kts
18-Mar-20 16:11 33.934264 -117.818702 21 2981ft 216kts
18-Mar-20 16:13 34.001936 -117.784272 21 2980ft 214kts
18-Mar-20 16:13 34.045508 -117.762018 21 2986ft 214kts
18-Mar-20 16:14 34.034760 -117.723011 181 3015ft 204kts
18-Mar-20 16:15 33.979248 -117.710570 162 2988ft 213kts
18-Mar-20 16:16 33.923023 -117.711883 208 2990ft 213kts
18-Mar-20 16:17 33.870522 -117.745034 208 2985ft 214kts
18-Mar-20 16:18 33.819948 -117.777259 208 2989ft 208kts
18-Mar-20 16:19 33.770178 -117.808869 208 2062ft 210kts
18-Mar-20 16:20 33.730331 -117.834183 207 1145ft 146kts
18-Mar-20 16:21 33.699218 -117.853929 207 476ft 121kts
18-Mar-20 16:22 33.674372 -117.869689 207 63ft 96kts
18-Mar-20 16:23 33.669284 -117.871778 132 62ft 0kts
18-Mar-20 16:24 33.667748 -117.871650 212 63ft 0kts

Navigation Log

Ident Type
Flight plan parsing failed, navigation log unavailable